createdAt,value
2017-02-26T00:01:05.736Z,6.39
2017-02-26T00:02:19.810Z,6.31
2017-02-26T00:03:34.718Z,6.26
2017-02-26T00:04:49.738Z,6.29
2017-02-26T00:06:04.260Z,6.32
2017-02-26T00:07:18.293Z,6.26
2017-02-26T00:08:32.473Z,6.31
2017-02-26T00:09:46.995Z,6.28
2017-02-26T00:11:01.546Z,6.29
2017-02-26T00:12:16.614Z,6.34
2017-02-26T00:13:30.693Z,6.38
2017-02-26T00:14:45.416Z,6.38
2017-02-26T00:16:00.265Z,6.34
2017-02-26T00:17:14.335Z,6.31
2017-02-26T00:18:28.868Z,6.38
2017-02-26T00:19:43.415Z,6.32
2017-02-26T00:20:58.169Z,6.43
2017-02-26T00:22:13.212Z,6.54
2017-02-26T00:23:27.822Z,6.47
2017-02-26T00:24:42.154Z,6.46
2017-02-26T00:25:56.370Z,6.41
2017-02-26T00:27:11.802Z,6.54
2017-02-26T00:28:26.338Z,6.53
2017-02-26T00:29:41.330Z,6.6
2017-02-26T00:30:55.620Z,6.44
2017-02-26T00:32:10.338Z,6.5
2017-02-26T00:33:25.017Z,6.39
2017-02-26T00:34:39.389Z,6.31
2017-02-26T00:35:54.127Z,6.28
2017-02-26T00:37:08.965Z,6.2
2017-02-26T00:38:24.645Z,6.22
2017-02-26T00:39:39.236Z,6.2
2017-02-26T00:40:53.461Z,6.19
2017-02-26T00:42:08.435Z,6.26
2017-02-26T00:43:22.660Z,6.2
2017-02-26T00:44:36.807Z,6.19
2017-02-26T00:45:51.357Z,6.06
2017-02-26T00:47:05.475Z,5.97
2017-02-26T00:48:20.049Z,5.94
2017-02-26T00:49:34.310Z,5.94
2017-02-26T00:50:48.511Z,6.01
2017-02-26T00:52:03.208Z,5.87
2017-02-26T00:53:17.477Z,5.88
2017-02-26T00:54:32.013Z,5.91
2017-02-26T00:55:46.093Z,5.87
2017-02-26T00:57:02.961Z,5.87
2017-02-26T00:58:17.989Z,5.81
2017-02-26T00:59:32.839Z,5.74
2017-02-26T01:00:47.004Z,5.73
2017-02-26T01:02:01.105Z,5.69
2017-02-26T01:03:15.314Z,5.79
2017-02-26T01:04:29.371Z,5.79
2017-02-26T01:05:43.956Z,5.73
2017-02-26T01:06:58.136Z,5.69
2017-02-26T01:08:12.625Z,5.74
2017-02-26T01:09:27.033Z,5.7
2017-02-26T01:10:41.643Z,5.67
2017-02-26T01:11:56.576Z,5.73
2017-02-26T01:13:11.585Z,5.7
2017-02-26T01:14:26.559Z,5.77
2017-02-26T01:15:41.288Z,5.74
2017-02-26T01:16:55.953Z,5.73
2017-02-26T01:18:10.162Z,5.77
2017-02-26T01:19:24.464Z,5.8
2017-02-26T01:20:39.095Z,5.77
2017-02-26T01:21:53.436Z,5.77
2017-02-26T01:23:08.038Z,5.69
2017-02-26T01:24:22.500Z,5.72
2017-02-26T01:25:37.098Z,5.59
2017-02-26T01:26:52.640Z,5.55
2017-02-26T01:28:07.341Z,5.52
2017-02-26T01:29:21.997Z,5.51
2017-02-26T01:30:36.150Z,5.38
2017-02-26T01:31:51.681Z,5.52
2017-02-26T01:33:06.293Z,5.56
2017-02-26T01:34:20.407Z,5.46
2017-02-26T01:35:34.637Z,5.43
2017-02-26T01:36:50.118Z,5.34
2017-02-26T01:38:04.683Z,5.34
2017-02-26T01:39:19.902Z,5.33
2017-02-26T01:40:34.227Z,5.33
2017-02-26T01:41:48.528Z,5.26
2017-02-26T01:43:02.689Z,5.28
2017-02-26T01:44:16.929Z,5.26
2017-02-26T01:45:30.980Z,5.28
2017-02-26T01:46:45.247Z,5.36
2017-02-26T01:47:59.654Z,5.38
2017-02-26T01:49:14.879Z,5.4
2017-02-26T01:50:29.162Z,5.37
2017-02-26T01:51:43.307Z,5.37
2017-02-26T01:52:58.974Z,5.25
2017-02-26T01:54:13.871Z,5.22
2017-02-26T01:55:28.243Z,5.28
2017-02-26T01:56:43.115Z,5.15
2017-02-26T01:57:57.196Z,5.2
2017-02-26T02:00:47.238Z,5.25
2017-02-26T02:02:02.116Z,5.38
2017-02-26T02:03:17.185Z,5.37
2017-02-26T02:04:31.296Z,5.4
2017-02-26T02:05:45.396Z,5.52
2017-02-26T02:07:00.493Z,5.49
2017-02-26T02:08:14.722Z,5.43
2017-02-26T02:09:29.913Z,5.47
2017-02-26T02:10:44.398Z,5.37
2017-02-26T02:11:59.831Z,5.38
2017-02-26T02:13:14.768Z,5.26
2017-02-26T02:14:30.395Z,5.26
2017-02-26T02:15:48.477Z,5.33
2017-02-26T02:17:02.722Z,5.28
2017-02-26T02:18:17.454Z,5.34
2017-02-26T02:19:31.700Z,5.34
2017-02-26T02:20:46.485Z,5.4
2017-02-26T02:22:01.245Z,5.41
2017-02-26T02:23:15.801Z,5.41
2017-02-26T02:24:31.521Z,5.46
2017-02-26T02:25:46.384Z,5.46
2017-02-26T02:27:01.025Z,5.38
2017-02-26T02:28:15.867Z,5.38
2017-02-26T02:29:30.098Z,5.4
2017-02-26T02:30:44.342Z,5.43
2017-02-26T02:31:58.942Z,5.44
2017-02-26T02:33:13.592Z,5.43
2017-02-26T02:34:28.174Z,5.52
2017-02-26T02:35:43.013Z,5.54
2017-02-26T02:36:58.875Z,5.58
2017-02-26T02:38:13.542Z,5.54
2017-02-26T02:39:28.381Z,5.51
2017-02-26T02:40:43.194Z,5.54
2017-02-26T02:41:57.286Z,5.55
2017-02-26T02:43:11.931Z,5.62
2017-02-26T02:44:26.550Z,5.47
2017-02-26T02:45:40.717Z,5.61
2017-02-26T02:46:56.504Z,5.61
2017-02-26T02:48:10.826Z,5.55
2017-02-26T02:49:24.951Z,5.58
2017-02-26T02:50:39.607Z,5.52
2017-02-26T02:51:54.027Z,5.44
2017-02-26T02:53:08.167Z,5.54
2017-02-26T02:54:22.943Z,5.55
2017-02-26T02:55:37.521Z,5.58
2017-02-26T02:56:52.318Z,5.56
2017-02-26T02:58:06.487Z,5.72
2017-02-26T02:59:21.199Z,5.61
2017-02-26T03:00:35.471Z,5.64
2017-02-26T03:01:50.595Z,5.55
2017-02-26T03:03:05.339Z,5.59
2017-02-26T03:04:20.239Z,5.47
2017-02-26T03:05:34.503Z,5.52
2017-02-26T03:06:48.644Z,5.52
2017-02-26T03:08:02.706Z,5.46
2017-02-26T03:09:16.887Z,5.4
2017-02-26T03:10:32.103Z,5.28
2017-02-26T03:11:46.542Z,5.28
2017-02-26T03:13:00.691Z,5.25
2017-02-26T03:14:15.597Z,5.2
2017-02-26T03:15:30.613Z,5.22
2017-02-26T03:16:46.480Z,5.23
2017-02-26T03:18:01.892Z,5.19
2017-02-26T03:19:16.194Z,5.16
2017-02-26T03:20:30.849Z,5.2
2017-02-26T03:21:45.355Z,5.28
2017-02-26T03:22:59.486Z,5.23
2017-02-26T03:24:13.588Z,5.2
2017-02-26T03:25:27.670Z,5.28
2017-02-26T03:26:41.915Z,5.33
2017-02-26T03:27:56.040Z,5.34
2017-02-26T03:29:10.223Z,5.31
2017-02-26T03:30:24.836Z,5.29
2017-02-26T03:31:39.037Z,5.25
2017-02-26T03:32:55.480Z,5.34
2017-02-26T03:34:10.630Z,5.43
2017-02-26T03:35:24.881Z,5.47
2017-02-26T03:36:39.476Z,5.43
2017-02-26T03:37:55.283Z,5.38
2017-02-26T03:39:09.775Z,5.4
2017-02-26T03:40:23.968Z,5.52
2017-02-26T03:41:38.543Z,5.43
2017-02-26T03:42:52.710Z,5.52
2017-02-26T03:44:08.145Z,5.47
2017-02-26T03:45:23.161Z,5.46
2017-02-26T03:46:38.151Z,5.41
2017-02-26T03:47:52.211Z,5.31
2017-02-26T03:49:06.687Z,5.41
2017-02-26T03:50:21.007Z,5.44
2017-02-26T03:51:35.467Z,5.43
2017-02-26T03:52:50.017Z,5.59
2017-02-26T03:54:04.736Z,5.7
2017-02-26T03:55:18.847Z,5.51
2017-02-26T03:56:33.945Z,5.54
2017-02-26T03:57:48.472Z,5.56
2017-02-26T03:59:03.656Z,5.51
2017-02-26T04:00:18.371Z,5.51
2017-02-26T04:01:32.466Z,5.54
2017-02-26T04:02:46.556Z,5.58
2017-02-26T04:04:01.525Z,5.55
2017-02-26T04:05:16.071Z,5.64
2017-02-26T04:06:30.138Z,5.54
2017-02-26T04:07:45.017Z,5.54
2017-02-26T04:08:59.515Z,5.56
2017-02-26T04:10:14.255Z,5.58
2017-02-26T04:11:28.460Z,5.65
2017-02-26T04:12:43.673Z,5.65
2017-02-26T04:13:59.068Z,5.59
2017-02-26T04:15:14.123Z,5.7
2017-02-26T04:16:29.153Z,5.72
2017-02-26T04:17:43.482Z,5.62
2017-02-26T04:18:57.676Z,5.67
2017-02-26T04:20:11.726Z,5.67
2017-02-26T04:21:26.818Z,5.64
2017-02-26T04:22:42.455Z,5.62
2017-02-26T04:23:57.755Z,5.65
2017-02-26T04:25:12.152Z,5.77
2017-02-26T04:26:27.150Z,5.69
2017-02-26T04:27:42.842Z,5.65
2017-02-26T04:28:57.653Z,5.73
2017-02-26T04:30:12.383Z,5.8
2017-02-26T04:31:28.306Z,5.8
2017-02-26T04:32:42.990Z,5.76
2017-02-26T04:33:57.625Z,5.74
2017-02-26T04:35:12.741Z,5.74
2017-02-26T04:36:27.991Z,5.83
2017-02-26T04:37:42.717Z,5.73
2017-02-26T04:38:57.903Z,5.81
2017-02-26T04:40:12.056Z,5.79
2017-02-26T04:41:32.864Z,5.74
2017-02-26T04:42:47.114Z,5.73
2017-02-26T04:44:01.901Z,5.73
2017-02-26T04:45:16.174Z,5.72
2017-02-26T04:46:31.095Z,5.74
2017-02-26T04:47:45.188Z,5.8
2017-02-26T04:49:00.985Z,5.97
2017-02-26T04:50:17.812Z,5.8
2017-02-26T04:51:32.353Z,5.94
2017-02-26T04:52:46.810Z,5.99
2017-02-26T04:54:01.806Z,5.94
2017-02-26T04:55:16.350Z,5.95
2017-02-26T04:56:30.862Z,6.01
2017-02-26T04:57:45.028Z,6.01
2017-02-26T04:58:59.172Z,6.01
2017-02-26T05:00:13.305Z,6.02
2017-02-26T05:01:27.461Z,6.05
2017-02-26T05:02:41.868Z,6.01
2017-02-26T05:03:55.870Z,5.99
2017-02-26T05:05:10.370Z,6.06
2017-02-26T05:06:24.529Z,6.13
2017-02-26T05:07:39.087Z,6.16
2017-02-26T05:08:53.192Z,6.1
2017-02-26T05:10:07.437Z,6.05
2017-02-26T05:11:22.002Z,6.01
2017-02-26T05:12:36.108Z,6.06
2017-02-26T05:13:50.296Z,6.07
2017-02-26T05:15:04.376Z,6.09
2017-02-26T05:16:18.862Z,6.02
2017-02-26T05:17:33.037Z,6.01
2017-02-26T05:18:47.197Z,6.17
2017-02-26T05:20:01.266Z,6.05
2017-02-26T05:21:15.727Z,5.98
2017-02-26T05:22:29.989Z,5.97
2017-02-26T05:23:44.571Z,5.97
2017-02-26T05:24:58.606Z,5.95
2017-02-26T05:26:12.647Z,5.84
2017-02-26T05:27:26.719Z,5.9
2017-02-26T05:28:41.362Z,5.91
2017-02-26T05:29:55.556Z,5.9
2017-02-26T05:31:09.739Z,5.76
2017-02-26T05:32:25.411Z,5.74
2017-02-26T05:33:39.748Z,5.74
2017-02-26T05:34:53.891Z,5.73
2017-02-26T05:36:08.018Z,5.77
2017-02-26T05:37:22.058Z,5.69
2017-02-26T05:38:36.221Z,5.77
2017-02-26T05:39:50.296Z,5.9
2017-02-26T05:41:05.344Z,5.92
2017-02-26T05:42:19.838Z,5.83
2017-02-26T05:43:35.174Z,5.84
2017-02-26T05:44:49.232Z,5.72
2017-02-26T05:46:03.235Z,5.74
2017-02-26T05:47:17.857Z,5.81
2017-02-26T05:48:32.242Z,5.84
2017-02-26T05:49:46.825Z,5.8
2017-02-26T05:51:01.453Z,5.72
2017-02-26T05:52:15.907Z,5.81
2017-02-26T05:53:29.952Z,5.84
2017-02-26T05:54:44.632Z,5.87
2017-02-26T05:55:58.730Z,5.97
2017-02-26T05:57:13.393Z,6.06
2017-02-26T05:58:27.472Z,6.05
2017-02-26T05:59:41.994Z,6.02
2017-02-26T06:00:57.496Z,6.05
2017-02-26T06:02:11.958Z,5.99
2017-02-26T06:03:26.472Z,5.98
2017-02-26T06:04:40.544Z,5.97
2017-02-26T06:05:54.737Z,5.91
2017-02-26T06:07:11.137Z,6.05
2017-02-26T06:08:25.686Z,6.02
2017-02-26T06:09:40.339Z,6.09
2017-02-26T06:10:54.431Z,6.02
2017-02-26T06:12:08.725Z,6.05
2017-02-26T06:13:22.879Z,6.07
2017-02-26T06:14:37.149Z,6.01
2017-02-26T06:15:51.258Z,6.01
2017-02-26T06:17:05.302Z,6.09
2017-02-26T06:18:19.278Z,6.07
2017-02-26T06:19:33.847Z,6.09
2017-02-26T06:20:47.995Z,6.01
2017-02-26T06:22:04.757Z,6.09
2017-02-26T06:23:19.704Z,6.05
2017-02-26T06:24:33.961Z,6.06
2017-02-26T06:25:49.078Z,6.01
2017-02-26T06:27:03.254Z,6.09
2017-02-26T06:28:17.818Z,6.06
2017-02-26T06:29:32.425Z,6.15
2017-02-26T06:30:46.724Z,6.22
2017-02-26T06:32:00.740Z,6.13
2017-02-26T06:33:15.389Z,6.17
2017-02-26T06:34:30.386Z,6.19
2017-02-26T06:35:44.659Z,6.12
2017-02-26T06:36:59.128Z,6.09
2017-02-26T06:38:13.689Z,6.02
2017-02-26T06:39:28.865Z,6.01
2017-02-26T06:40:43.093Z,6.09
2017-02-26T06:41:57.170Z,6.05
2017-02-26T06:43:12.458Z,5.99
2017-02-26T06:44:28.012Z,6.1
2017-02-26T06:45:43.409Z,6.06
2017-02-26T06:46:58.463Z,6.13
2017-02-26T06:48:12.518Z,6.19
2017-02-26T06:49:27.637Z,6.19
2017-02-26T06:50:41.931Z,6.29
2017-02-26T06:51:56.810Z,6.19
2017-02-26T06:53:10.852Z,6.19
2017-02-26T06:54:25.996Z,6.32
2017-02-26T06:55:40.153Z,6.32
2017-02-26T06:56:54.729Z,6.2
2017-02-26T06:58:09.095Z,6.28
2017-02-26T06:59:23.620Z,6.34
2017-02-26T07:00:37.954Z,6.28
2017-02-26T07:01:52.113Z,6.35
2017-02-26T07:07:01.151Z,6.13
2017-02-26T07:08:16.170Z,6.19
2017-02-26T07:09:31.106Z,6.17
2017-02-26T07:10:45.109Z,6.16
2017-02-26T07:11:59.612Z,6.19
2017-02-26T07:13:13.674Z,6.19
2017-02-26T07:14:28.272Z,6.26
2017-02-26T07:15:42.748Z,6.28
2017-02-26T07:16:56.789Z,6.22
2017-02-26T07:18:11.255Z,6.31
2017-02-26T07:19:25.393Z,6.26
2017-02-26T07:20:40.528Z,6.26
2017-02-26T07:21:55.318Z,6.29
2017-02-26T07:23:10.248Z,6.34
2017-02-26T07:24:24.269Z,6.31
2017-02-26T07:25:38.312Z,6.47
2017-02-26T07:26:54.735Z,6.39
2017-02-26T07:28:09.304Z,6.65
2017-02-26T07:29:24.323Z,6.65
2017-02-26T07:30:38.358Z,6.54
2017-02-26T07:31:54.344Z,6.7
2017-02-26T07:33:08.464Z,6.57
2017-02-26T07:34:22.999Z,6.64
2017-02-26T07:35:37.533Z,6.62
2017-02-26T07:36:51.709Z,6.59
2017-02-26T07:38:07.440Z,6.59
2017-02-26T07:39:21.544Z,6.71
2017-02-26T07:40:36.045Z,6.74
2017-02-26T07:41:50.252Z,6.71
2017-02-26T07:43:04.678Z,6.67
2017-02-26T07:44:18.971Z,6.65
2017-02-26T07:45:33.411Z,6.64
2017-02-26T07:46:48.152Z,6.57
2017-02-26T07:48:03.541Z,6.59
2017-02-26T07:49:18.672Z,6.62
2017-02-26T07:50:33.210Z,6.6
2017-02-26T07:51:47.784Z,6.74
2017-02-26T07:53:01.973Z,6.77
2017-02-26T07:54:17.192Z,6.75
2017-02-26T07:55:31.755Z,6.72
2017-02-26T07:56:46.233Z,6.78
2017-02-26T07:58:01.249Z,6.82
2017-02-26T07:59:15.791Z,6.78
2017-02-26T08:00:30.723Z,6.72
2017-02-26T08:01:44.968Z,6.8
2017-02-26T08:03:00.747Z,6.85
2017-02-26T08:04:15.745Z,6.93
2017-02-26T08:05:30.549Z,6.93
2017-02-26T08:06:46.985Z,6.96
2017-02-26T08:08:05.514Z,7.03
2017-02-26T08:09:19.831Z,6.96
2017-02-26T08:10:34.650Z,7.03
2017-02-26T08:11:49.411Z,7.21
2017-02-26T08:13:08.479Z,7.26
2017-02-26T08:14:22.620Z,7.26
2017-02-26T08:15:36.886Z,7.26
2017-02-26T08:16:56.350Z,7.31
2017-02-26T08:18:11.636Z,7.37
2017-02-26T08:19:25.948Z,7.32
2017-02-26T08:20:40.429Z,7.28
2017-02-26T08:21:55.112Z,7.36
2017-02-26T08:23:09.773Z,7.44
2017-02-26T08:24:24.436Z,7.47
2017-02-26T08:25:39.148Z,7.59
2017-02-26T08:26:54.210Z,7.81
2017-02-26T08:28:08.374Z,7.9
2017-02-26T08:29:22.464Z,8.06
2017-02-26T08:30:37.702Z,8.06
2017-02-26T08:31:51.900Z,8.14
2017-02-26T08:33:06.483Z,8.14
2017-02-26T08:34:20.543Z,8.2
2017-02-26T08:35:34.773Z,8.18
2017-02-26T08:36:48.965Z,8.21
2017-02-26T08:38:03.714Z,8.17
2017-02-26T08:39:18.303Z,8.21
2017-02-26T08:40:33.027Z,8.32
2017-02-26T08:41:49.459Z,8.28
2017-02-26T08:43:04.143Z,8.44
2017-02-26T08:44:20.977Z,8.53
2017-02-26T08:45:35.434Z,8.68
2017-02-26T08:46:49.899Z,8.86
2017-02-26T08:48:04.665Z,8.78
2017-02-26T08:49:18.773Z,8.79
2017-02-26T08:50:34.216Z,8.64
2017-02-26T08:51:48.271Z,8.77
2017-02-26T08:53:03.765Z,8.87
2017-02-26T08:54:18.397Z,8.89
2017-02-26T08:55:32.464Z,8.68
2017-02-26T08:56:47.944Z,8.81
2017-02-26T08:58:02.453Z,8.86
2017-02-26T08:59:17.032Z,8.72
2017-02-26T09:00:31.678Z,8.84
2017-02-26T09:01:46.634Z,8.82
2017-02-26T09:03:02.273Z,8.87
2017-02-26T09:04:17.427Z,8.95
2017-02-26T09:05:32.585Z,8.92
2017-02-26T09:06:48.667Z,9.05
2017-02-26T09:08:05.018Z,9.08
2017-02-26T09:09:19.579Z,9.11
2017-02-26T09:10:34.233Z,9.03
2017-02-26T09:11:48.811Z,9.18
2017-02-26T09:13:04.464Z,9.16
2017-02-26T09:14:18.552Z,9.11
2017-02-26T09:15:34.861Z,9.05
2017-02-26T09:16:49.884Z,9.15
2017-02-26T09:18:05.048Z,8.99
2017-02-26T09:19:20.268Z,9.03
2017-02-26T09:20:34.972Z,9.03
2017-02-26T09:21:49.197Z,9.05
2017-02-26T09:23:05.142Z,9.05
2017-02-26T09:24:21.025Z,9.05
2017-02-26T09:25:35.270Z,9.05
2017-02-26T09:26:53.216Z,9.02
2017-02-26T09:28:07.975Z,9.19
2017-02-26T09:29:24.186Z,9.29
2017-02-26T09:30:38.793Z,9.21
2017-02-26T09:31:54.576Z,9.03
2017-02-26T09:33:09.829Z,8.93
2017-02-26T09:34:24.614Z,8.78
2017-02-26T09:35:39.311Z,8.79
2017-02-26T09:36:53.831Z,8.77
2017-02-26T09:38:07.933Z,8.61
2017-02-26T09:39:22.501Z,8.77
2017-02-26T09:40:37.618Z,8.82
2017-02-26T09:41:53.933Z,8.68
2017-02-26T09:43:07.987Z,8.63
2017-02-26T09:44:22.664Z,8.68
2017-02-26T09:45:38.411Z,8.66
2017-02-26T09:46:54.549Z,8.59
2017-02-26T09:48:08.619Z,8.64
2017-02-26T09:49:22.797Z,8.72
2017-02-26T09:50:37.997Z,8.61
2017-02-26T09:51:52.694Z,8.82
2017-02-26T09:53:07.626Z,8.77
2017-02-26T09:54:22.996Z,8.71
2017-02-26T09:55:37.487Z,8.81
2017-02-26T09:56:51.561Z,8.89
2017-02-26T09:58:05.738Z,8.96
2017-02-26T09:59:20.334Z,8.95
2017-02-26T10:00:34.911Z,9.03
2017-02-26T10:01:53.215Z,9.09
2017-02-26T10:03:07.421Z,9.02
2017-02-26T10:04:23.429Z,9.16
2017-02-26T10:05:37.578Z,9.16
2017-02-26T10:06:52.789Z,9.22
2017-02-26T10:08:07.708Z,9.21
2017-02-26T10:09:24.024Z,9.29
2017-02-26T10:10:39.157Z,9.36
2017-02-26T10:11:54.840Z,9.36
2017-02-26T10:13:09.009Z,9.4
2017-02-26T10:14:23.256Z,9.39
2017-02-26T10:15:37.474Z,9.45
2017-02-26T10:16:51.613Z,9.44
2017-02-26T10:18:06.186Z,9.45
2017-02-26T10:19:21.068Z,9.51
2017-02-26T10:20:35.194Z,9.56
2017-02-26T10:21:50.019Z,9.55
2017-02-26T10:23:05.472Z,9.56
2017-02-26T10:24:19.878Z,9.63
2017-02-26T10:25:34.979Z,9.85
2017-02-26T10:26:49.663Z,9.95
2017-02-26T10:28:05.157Z,10
2017-02-26T10:29:19.409Z,10.07
2017-02-26T10:30:33.840Z,10.02
2017-02-26T10:31:47.941Z,9.95
2017-02-26T10:33:03.367Z,9.99
2017-02-26T10:34:17.982Z,10.03
2017-02-26T10:35:33.109Z,10
2017-02-26T10:36:47.200Z,10.02
2017-02-26T10:38:02.758Z,10.18
2017-02-26T10:39:18.083Z,10.27
2017-02-26T10:40:33.003Z,10.15
2017-02-26T10:41:48.230Z,10.25
2017-02-26T10:43:05.286Z,10.28
2017-02-26T10:44:22.466Z,10.41
2017-02-26T10:45:39.381Z,10.38
2017-02-26T10:46:57.829Z,10.42
2017-02-26T10:48:16.511Z,10.43
2017-02-26T10:49:34.076Z,10.41
2017-02-26T10:50:54.366Z,10.24
2017-02-26T10:52:14.503Z,10.27
2017-02-26T10:53:32.074Z,10.25
2017-02-26T10:54:48.300Z,10.23
2017-02-26T10:56:05.201Z,10.21
2017-02-26T10:57:23.793Z,10.41
2017-02-26T10:58:39.961Z,10.59
2017-02-26T10:59:57.339Z,10.57
2017-02-26T11:01:14.757Z,10.64
2017-02-26T11:02:32.838Z,10.67
2017-02-26T11:03:49.767Z,10.53
2017-02-26T11:05:08.373Z,10.42
2017-02-26T11:06:26.838Z,10.36
2017-02-26T11:07:57.702Z,10.46
2017-02-26T11:09:21.244Z,10.45
2017-02-26T11:10:46.228Z,10.58
2017-02-26T11:12:11.972Z,10.67
2017-02-26T11:13:38.725Z,10.62
2017-02-26T11:15:04.758Z,10.64
2017-02-26T11:16:23.623Z,10.65
2017-02-26T11:17:45.077Z,10.75
2017-02-26T11:19:08.783Z,10.68
2017-02-26T11:20:34.722Z,10.75
2017-02-26T11:22:05.166Z,10.89
2017-02-26T11:23:29.570Z,10.98
2017-02-26T11:24:55.135Z,11.04
2017-02-26T11:26:20.411Z,11.15
2017-02-26T11:27:44.254Z,11.08
2017-02-26T11:29:11.137Z,10.97
2017-02-26T11:30:35.678Z,11.22
2017-02-26T11:32:01.123Z,11.49
2017-02-26T11:33:25.046Z,11.51
2017-02-26T11:34:49.139Z,11.6
2017-02-26T11:36:14.132Z,11.68
2017-02-26T11:37:37.507Z,11.6
2017-02-26T11:39:03.894Z,11.56
2017-02-26T11:40:30.478Z,11.44
2017-02-26T11:41:54.567Z,11.37
2017-02-26T11:43:13.408Z,11.33
2017-02-26T11:44:37.153Z,11.52
2017-02-26T11:46:00.791Z,11.55
2017-02-26T11:47:25.199Z,11.56
2017-02-26T11:48:49.542Z,11.71
2017-02-26T11:50:15.897Z,11.83
2017-02-26T11:51:42.533Z,11.86
2017-02-26T11:53:07.589Z,11.81
2017-02-26T11:54:29.164Z,11.88
2017-02-26T11:55:54.977Z,11.81
2017-02-26T11:57:20.462Z,11.89
2017-02-26T11:58:48.106Z,11.93
2017-02-26T12:00:16.566Z,12.08
2017-02-26T12:01:43.593Z,12.21
2017-02-26T12:03:09.587Z,12.29
2017-02-26T12:04:36.514Z,12.35
2017-02-26T12:06:01.941Z,12.29
2017-02-26T12:07:25.420Z,12.29
2017-02-26T12:08:49.894Z,12.29
2017-02-26T12:10:15.772Z,12.21
2017-02-26T12:11:44.501Z,12.2
2017-02-26T12:13:11.513Z,12.21
2017-02-26T12:14:40.946Z,12.28
2017-02-26T12:16:05.132Z,12.28
2017-02-26T12:17:27.033Z,12.11
2017-02-26T12:18:49.326Z,11.97
2017-02-26T12:20:14.794Z,11.99
2017-02-26T12:21:37.684Z,12.08
2017-02-26T12:22:58.634Z,12.15
2017-02-26T12:24:19.079Z,12.15
2017-02-26T12:25:43.064Z,12.21
2017-02-26T12:27:07.174Z,12.28
2017-02-26T12:28:33.172Z,12.43
2017-02-26T12:29:59.819Z,12.35
2017-02-26T12:31:23.105Z,12.4
2017-02-26T12:32:47.820Z,12.45
2017-02-26T12:34:10.048Z,12.58
2017-02-26T12:35:28.049Z,12.69
2017-02-26T12:36:47.076Z,12.78
2017-02-26T12:38:05.983Z,12.88
2017-02-26T12:39:24.286Z,12.95
2017-02-26T12:40:43.106Z,13.02
2017-02-26T12:42:02.259Z,12.98
2017-02-26T12:43:24.058Z,13.01
2017-02-26T12:44:43.222Z,13.19
2017-02-26T12:46:02.798Z,13.13
2017-02-26T12:47:23.776Z,13.16
2017-02-26T12:48:53.855Z,13.12
2017-02-26T12:50:14.531Z,13.19
2017-02-26T12:51:34.308Z,13.3
2017-02-26T12:52:54.149Z,13.33
2017-02-26T12:54:11.805Z,13.37
2017-02-26T12:55:33.152Z,13.39
2017-02-26T12:56:54.619Z,13.49
2017-02-26T12:58:18.126Z,13.58
2017-02-26T12:59:38.429Z,13.62
2017-02-26T13:01:02.435Z,13.62
2017-02-26T13:02:30.136Z,13.6
2017-02-26T13:03:52.417Z,13.71
2017-02-26T13:05:16.944Z,13.79
2017-02-26T13:06:45.020Z,13.73
2017-02-26T13:08:08.001Z,13.82
2017-02-26T13:09:30.571Z,13.94
2017-02-26T13:10:50.678Z,14.03
2017-02-26T13:12:24.426Z,14.04
2017-02-26T13:13:46.043Z,14.11
2017-02-26T13:15:06.376Z,14.08
2017-02-26T13:16:31.750Z,13.98
2017-02-26T13:17:56.759Z,13.97
2017-02-26T13:19:22.942Z,13.89
2017-02-26T13:20:48.419Z,13.82
2017-02-26T13:22:10.395Z,13.91
2017-02-26T13:23:32.013Z,13.89
2017-02-26T13:24:54.535Z,13.8
2017-02-26T13:26:19.809Z,13.78
2017-02-26T13:27:42.647Z,13.78
2017-02-26T13:29:07.219Z,13.8
2017-02-26T13:30:29.989Z,13.79
2017-02-26T13:31:54.340Z,13.87
2017-02-26T13:33:16.808Z,13.82
2017-02-26T13:34:36.872Z,13.95
2017-02-26T13:35:53.683Z,13.95
2017-02-26T13:37:12.451Z,13.89
2017-02-26T13:38:27.783Z,14.05
2017-02-26T13:39:42.818Z,14.04
2017-02-26T13:40:58.066Z,14.12
2017-02-26T13:42:12.181Z,14.13
2017-02-26T13:43:28.356Z,14.23
2017-02-26T13:44:44.089Z,14.25
2017-02-26T13:45:59.802Z,14.2
2017-02-26T13:47:16.365Z,14.37
2017-02-26T13:48:32.972Z,14.37
2017-02-26T13:49:48.201Z,14.44
2017-02-26T13:51:02.833Z,14.28
2017-02-26T13:52:18.121Z,14.23
2017-02-26T13:53:33.147Z,14.23
2017-02-26T13:54:48.224Z,14.26
2017-02-26T13:56:02.475Z,14.16
2017-02-26T13:57:17.129Z,14.34
2017-02-26T13:58:31.320Z,14.23
2017-02-26T13:59:45.817Z,14.34
2017-02-26T14:01:01.199Z,14.34
2017-02-26T14:02:16.255Z,14.36
2017-02-26T14:03:30.801Z,14.34
2017-02-26T14:04:45.830Z,14.36
2017-02-26T14:06:01.144Z,14.49
2017-02-26T14:07:15.727Z,14.33
2017-02-26T14:08:29.806Z,14.36
2017-02-26T14:09:44.361Z,14.38
2017-02-26T14:11:01.111Z,14.31
2017-02-26T14:12:17.119Z,14.4
2017-02-26T14:13:32.498Z,14.38
2017-02-26T14:14:47.508Z,14.45
2017-02-26T14:16:05.329Z,14.38
2017-02-26T14:17:23.220Z,14.49
2017-02-26T14:18:38.303Z,14.45
2017-02-26T14:19:53.003Z,14.41
2017-02-26T14:21:07.226Z,14.41
2017-02-26T14:22:22.602Z,14.43
2017-02-26T14:23:37.712Z,14.48
2017-02-26T14:24:52.787Z,14.41
2017-02-26T14:26:07.300Z,14.36
2017-02-26T14:27:22.055Z,14.34
2017-02-26T14:28:36.209Z,14.38
2017-02-26T14:29:50.406Z,14.48
2017-02-26T14:31:05.108Z,14.52
2017-02-26T14:32:20.323Z,14.41
2017-02-26T14:33:35.626Z,14.55
2017-02-26T14:34:51.003Z,14.48
2017-02-26T14:36:05.705Z,14.44
2017-02-26T14:37:19.940Z,14.58
2017-02-26T14:38:34.392Z,14.55
2017-02-26T14:39:49.429Z,14.56
2017-02-26T14:41:04.256Z,14.66
2017-02-26T14:42:19.793Z,14.86
2017-02-26T14:43:36.295Z,14.79
2017-02-26T14:44:51.277Z,14.93
2017-02-26T14:46:06.419Z,14.93
2017-02-26T14:47:21.999Z,14.96
2017-02-26T14:48:37.672Z,15.02
2017-02-26T14:49:55.029Z,15.04
2017-02-26T14:51:09.697Z,14.97
2017-02-26T14:52:25.418Z,14.85
2017-02-26T14:53:41.870Z,14.78
2017-02-26T14:54:59.966Z,14.66
2017-02-26T14:56:15.472Z,14.7
2017-02-26T14:57:30.571Z,14.77
2017-02-26T14:58:45.557Z,14.85
2017-02-26T15:00:01.842Z,14.73
2017-02-26T15:01:18.370Z,14.78
2017-02-26T15:02:33.906Z,14.7
2017-02-26T15:03:51.039Z,14.74
2017-02-26T15:05:06.401Z,14.78
2017-02-26T15:06:22.972Z,14.78
2017-02-26T15:07:39.427Z,14.81
2017-02-26T15:08:54.399Z,14.81
2017-02-26T15:10:09.273Z,14.81
2017-02-26T15:11:25.261Z,14.73
2017-02-26T15:12:41.829Z,14.74
2017-02-26T15:13:58.867Z,14.86
2017-02-26T15:15:14.154Z,14.73
2017-02-26T15:16:28.972Z,14.79
2017-02-26T15:17:43.762Z,14.81
2017-02-26T15:18:58.917Z,14.79
2017-02-26T15:20:13.231Z,14.82
2017-02-26T15:21:28.778Z,14.68
2017-02-26T15:22:44.156Z,14.73
2017-02-26T15:23:58.379Z,14.7
2017-02-26T15:25:13.148Z,14.79
2017-02-26T15:26:28.868Z,14.86
2017-02-26T15:27:43.487Z,14.79
2017-02-26T15:29:01.849Z,14.71
2017-02-26T15:30:16.965Z,14.79
2017-02-26T15:31:32.135Z,14.82
2017-02-26T15:32:46.491Z,14.81
2017-02-26T15:34:01.729Z,14.86
2017-02-26T15:35:16.715Z,14.85
2017-02-26T15:36:31.285Z,14.85
2017-02-26T15:37:45.880Z,14.71
2017-02-26T15:39:01.517Z,14.67
2017-02-26T15:40:16.198Z,14.67
2017-02-26T15:41:32.622Z,14.68
2017-02-26T15:42:48.714Z,14.61
2017-02-26T15:44:05.305Z,14.63
2017-02-26T15:45:21.592Z,14.71
2017-02-26T15:46:36.838Z,14.68
2017-02-26T15:49:38.088Z,14.59
2017-02-26T15:50:53.339Z,14.63
2017-02-26T15:52:09.026Z,14.53
2017-02-26T15:53:24.118Z,14.48
2017-02-26T15:55:22.525Z,14.43
2017-02-26T15:56:38.041Z,14.55
2017-02-26T15:57:53.037Z,14.37
2017-02-26T15:59:08.087Z,14.52
2017-02-26T16:00:22.232Z,14.56
2017-02-26T16:01:36.510Z,14.55
2017-02-26T16:02:51.141Z,14.55
2017-02-26T16:04:05.503Z,14.58
2017-02-26T16:05:19.776Z,14.56
2017-02-26T16:06:34.417Z,14.53
2017-02-26T16:07:49.060Z,14.66
2017-02-26T16:09:03.701Z,14.67
2017-02-26T16:10:20.147Z,14.71
2017-02-26T16:11:35.325Z,14.7
2017-02-26T16:12:49.517Z,14.81
2017-02-26T16:14:05.913Z,14.79
2017-02-26T16:15:22.314Z,14.81
2017-02-26T16:16:36.518Z,14.7
2017-02-26T16:17:51.267Z,14.7
2017-02-26T16:19:06.617Z,14.59
2017-02-26T16:20:22.937Z,14.55
2017-02-26T16:21:38.121Z,14.4
2017-02-26T16:22:52.751Z,14.3
2017-02-26T16:24:06.915Z,14.31
2017-02-26T16:25:21.222Z,14.33
2017-02-26T16:26:36.086Z,14.36
2017-02-26T16:27:51.129Z,14.37
2017-02-26T16:29:05.315Z,14.31
2017-02-26T16:30:20.645Z,14.3
2017-02-26T16:31:36.826Z,14.31
2017-02-26T16:32:52.027Z,14.25
2017-02-26T16:34:06.112Z,14.33
2017-02-26T16:35:20.639Z,14.2
2017-02-26T16:36:35.029Z,14.19
2017-02-26T16:37:49.650Z,14.22
2017-02-26T16:39:04.690Z,14.18
2017-02-26T16:40:19.229Z,14.15
2017-02-26T16:41:33.957Z,14.22
2017-02-26T16:42:48.671Z,14.18
2017-02-26T16:44:03.478Z,14.2
2017-02-26T16:45:18.671Z,14.12
2017-02-26T16:46:33.326Z,14.07
2017-02-26T16:47:50.689Z,14.05
2017-02-26T16:49:05.415Z,14.15
2017-02-26T16:50:19.711Z,14.07
2017-02-26T16:51:34.047Z,14.12